.
WxDataArchive / Data Records for 2011-11-19
2011-11-18 November 2011 2011-11-20

Data Records for Saturday, 19 November 2011

Time	Temp	Chill	HIndex	Humid	Dewpt	 Wind 	HiWind	WindDir	Rain 	Barom 
-----	----	-----	------	-----	-----	------	------	-------	-----	----- 
00:00	44.5	44.5	44.5	36	19.2	2	9	248	0.00	30.033 
00:05	44.6	44.6	44.6	35	18.7	2	7	248	0.00	30.033 
00:10	44.6	44.6	44.6	36	19.3	2	6	248	0.00	30.033 
00:15	44.6	44.6	44.6	36	19.3	2	7	248	0.00	30.030 
00:20	44.8	44.8	44.8	36	19.5	2	9	248	0.00	30.030 
00:25	44.6	44.6	44.6	37	20.0	1	4	248	0.00	30.030 
00:30	44.6	44.6	44.6	37	20.0	2	5	248	0.00	30.032 
00:35	44.6	44.6	44.6	37	20.0	2	7	248	0.00	30.032 
00:40	44.5	44.5	44.5	37	19.9	2	5	248	0.00	30.032 
00:45	44.3	44.3	44.3	38	20.3	1	5	248	0.00	30.033 
00:50	44.3	44.3	44.3	38	20.3	1	5	248	0.00	30.033 
00:55	44.2	44.2	44.2	39	20.8	1	4	248	0.00	30.033 
01:00	44.2	44.2	44.2	39	20.8	1	5	248	0.00	30.034 
01:05	44.1	44.1	44.1	39	20.7	1	7	225	0.00	30.034 
01:10	44.1	44.1	44.1	40	21.3	1	7	248	0.00	30.034 
01:15	44.1	44.1	44.1	40	21.3	1	6	225	0.00	30.026 
01:20	44.2	44.2	44.2	40	21.4	1	4	225	0.00	30.026 
01:25	44.1	44.1	44.1	41	21.9	1	3	225	0.00	30.026 
01:30	44.2	44.2	44.2	41	22.0	1	4	248	0.00	30.027 
01:35	44.5	44.5	44.5	40	21.7	1	6	248	0.00	30.027 
01:40	44.8	44.8	44.8	40	22.0	1	5	248	0.00	30.027 
01:45	44.9	44.9	44.9	40	22.1	2	6	248	0.00	30.024 
01:50	45.4	45.4	45.4	39	21.9	2	4	248	0.00	30.024 
01:55	45.7	45.7	45.7	39	22.2	2	6	248	0.00	30.024 
02:00	46.0	46.0	46.0	39	22.4	2	5	248	0.00	30.030 
02:05	46.1	46.1	46.1	39	22.5	2	9	248	0.00	30.030 
02:10	46.2	46.2	46.2	39	22.6	3	9	248	0.00	30.030 
02:15	46.4	46.4	46.4	38	22.2	2	7	270	0.00	30.036 
02:20	46.4	46.4	46.4	39	22.8	2	6	248	0.00	30.036 
02:25	46.5	46.5	46.5	39	22.9	2	7	248	0.00	30.036 
02:30	46.5	46.5	46.5	39	22.9	2	6	248	0.00	30.045 
02:35	46.5	46.5	46.5	38	22.3	2	9	248	0.00	30.045 
02:40	46.5	46.5	46.5	39	22.9	1	3	248	0.00	30.045 
02:45	46.5	46.5	46.5	38	22.3	3	9	248	0.00	30.052 
02:50	46.7	46.7	46.7	39	23.1	2	5	248	0.00	30.052 
02:55	46.7	46.7	46.7	39	23.1	3	7	248	0.00	30.052 
03:00	46.7	46.7	46.7	39	23.1	2	5	248	0.00	30.050 
03:05	46.7	46.7	46.7	39	23.1	2	7	248	0.00	30.050 
03:10	46.5	46.5	46.5	39	22.9	2	8	248	0.00	30.050 
03:15	46.5	46.5	46.5	39	22.9	2	6	248	0.00	30.051 
03:20	46.5	46.5	46.5	39	22.9	2	7	248	0.00	30.051 
03:25	46.5	46.5	46.5	39	22.9	2	5	248	0.00	30.051 
03:30	46.5	46.5	46.5	39	22.9	3	7	248	0.00	30.050 
03:35	46.5	46.5	46.5	39	22.9	2	5	248	0.00	30.050 
03:40	46.4	46.4	46.4	40	23.4	3	7	248	0.00	30.050 
03:45	46.4	46.4	46.4	40	23.4	3	9	248	0.00	30.057 
03:50	46.2	46.2	46.2	40	23.2	2	6	248	0.00	30.057 
03:55	46.1	46.1	46.1	40	23.1	2	7	248	0.00	30.057 
04:00	46.0	46.0	46.0	41	23.6	2	7	248	0.00	30.052 
04:05	45.8	45.8	45.8	41	23.5	2	7	248	0.00	30.052 
04:10	45.7	45.7	45.7	42	23.9	2	6	248	0.00	30.052 
04:15	45.7	45.7	45.7	42	23.9	2	9	248	0.00	30.055 
04:20	45.5	45.5	45.5	43	24.3	2	4	248	0.00	30.055 
04:25	45.4	45.4	45.4	43	24.2	1	5	248	0.00	30.055 
04:30	45.2	45.2	45.2	43	24.0	1	4	248	0.00	30.056 
04:35	44.9	44.9	44.9	44	24.3	1	6	248	0.00	30.056 
04:40	44.8	44.8	44.8	44	24.2	2	6	248	0.00	30.056 
04:45	44.6	44.6	44.6	45	24.6	1	4	248	0.00	30.056 
04:50	44.5	44.5	44.5	45	24.5	1	4	248	0.00	30.056 
04:55	44.3	44.3	44.3	46	24.8	1	5	248	0.00	30.056 
05:00	44.3	44.3	44.3	46	24.8	1	3	248	0.00	30.054 
05:05	44.1	44.1	44.1	47	25.2	0	3	248	0.00	30.054 
05:10	43.9	43.9	43.9	47	25.0	1	4	248	0.00	30.054 
05:15	43.8	43.8	43.8	48	25.4	1	3	225	0.00	30.051 
05:20	43.6	43.6	43.6	48	25.2	1	3	225	0.00	30.051 
05:25	43.5	43.5	43.5	49	25.6	1	3	225	0.00	30.051 
05:30	43.5	43.5	43.5	50	26.1	1	3	225	0.00	30.048 
05:35	43.3	43.3	43.3	50	25.9	1	3	225	0.00	30.048 
05:40	43.2	43.2	43.2	50	25.8	1	4	270	0.00	30.048 
05:45	43.2	43.2	43.2	50	25.8	0	4	68	0.00	30.049 
05:50	42.9	42.9	42.9	51	26.0	1	7	68	0.00	30.049 
05:55	42.8	42.8	42.8	52	26.4	1	4	292	0.00	30.049 
06:00	42.6	42.6	42.6	52	26.2	1	7	248	0.00	30.048 
06:05	42.5	42.5	42.5	52	26.1	1	5	248	0.00	30.048 
06:10	42.5	42.5	42.5	52	26.1	1	10	90	0.00	30.048 
06:15	42.5	42.5	42.5	52	26.1	1	5	248	0.00	30.044 
06:20	42.5	42.5	42.5	52	26.1	1	4	270	0.00	30.044 
06:25	42.5	42.5	42.5	52	26.1	2	5	225	0.00	30.044 
06:30	42.3	42.3	42.3	53	26.4	2	7	225	0.00	30.045 
06:35	42.5	42.5	42.5	53	26.6	1	4	225	0.00	30.045 
06:40	42.3	42.3	42.3	54	26.9	1	5	225	0.00	30.045 
06:45	42.3	42.3	42.3	54	26.9	1	7	225	0.00	30.043 
06:50	42.3	42.3	42.3	54	26.9	1	4	225	0.00	30.043 
06:55	42.3	42.3	42.3	54	26.9	1	4	248	0.00	30.043 
07:00	42.5	42.5	42.5	54	27.0	2	5	292	0.00	30.037 
07:05	42.5	42.5	42.5	55	27.5	1	4	270	0.00	30.037 
07:10	42.5	42.5	42.5	54	27.0	1	5	248	0.00	30.037 
07:15	42.6	42.6	42.6	55	27.6	1	5	248	0.00	30.038 
07:20	42.8	42.8	42.8	55	27.8	2	6	270	0.00	30.038 
07:25	42.9	42.9	42.9	55	27.9	1	5	248	0.00	30.038 
07:30	42.9	42.9	42.9	55	27.9	1	9	248	0.00	30.036 
07:35	43.1	43.1	43.1	55	28.0	1	5	248	0.00	30.036 
07:40	43.1	43.1	43.1	56	28.5	1	6	248	0.00	30.036 
07:45	43.2	43.2	43.2	56	28.6	1	4	248	0.00	30.041 
07:50	43.2	43.2	43.2	56	28.6	1	3	270	0.00	30.041 
07:55	43.2	43.2	43.2	56	28.6	1	4	292	0.00	30.041 
08:00	43.2	43.2	43.2	56	28.6	2	5	225	0.00	30.039 
08:05	43.3	43.3	43.3	56	28.7	2	7	248	0.00	30.039 
08:10	43.5	43.5	43.5	56	28.9	2	6	248	0.00	30.039 
08:15	43.6	43.6	43.6	56	29.0	2	5	248	0.00	30.042 
08:20	43.6	43.6	43.6	57	29.4	2	5	248	0.00	30.042 
08:25	43.8	43.8	43.8	57	29.6	2	5	248	0.00	30.042 
08:30	43.9	43.9	43.9	57	29.7	2	9	248	0.00	30.041 
08:35	44.1	44.1	44.1	57	29.9	2	6	225	0.00	30.041 
08:40	44.2	44.2	44.2	57	29.9	1	5	270	0.00	30.041 
08:45	44.3	44.3	44.3	57	30.0	2	6	248	0.00	30.044 
08:50	44.3	44.3	44.3	57	30.0	2	9	270	0.00	30.044 
08:55	44.5	44.5	44.5	56	29.8	2	7	248	0.00	30.044 
09:00	44.6	44.6	44.6	56	29.9	2	6	248	0.00	30.042 
09:05	44.9	44.9	44.9	56	30.2	3	12	248	0.00	30.042 
09:10	45.1	45.1	45.1	55	29.9	3	12	248	0.00	30.042 
09:15	45.2	45.2	45.2	54	29.6	3	10	270	0.00	30.043 
09:20	45.4	45.4	45.4	56	30.6	2	6	248	0.00	30.043 
09:25	45.5	45.5	45.5	54	29.8	3	10	270	0.00	30.043 
09:30	45.5	45.5	45.5	54	29.8	3	10	270	0.00	30.038 
09:35	45.7	45.7	45.7	54	30.0	3	8	248	0.00	30.038 
09:40	45.8	45.8	45.8	54	30.1	3	11	248	0.00	30.038 
09:45	45.8	45.8	45.8	54	30.1	2	5	248	0.00	30.039 
09:50	46.0	46.0	46.0	54	30.3	3	7	248	0.00	30.039 
09:55	46.0	46.0	46.0	54	30.3	3	10	248	0.00	30.039 
10:00	46.1	46.1	46.1	54	30.4	3	9	248	0.00	30.037 
10:05	46.1	46.1	46.1	54	30.4	2	10	248	0.00	30.037 
10:10	46.1	46.1	46.1	54	30.4	2	10	248	0.00	30.037 
10:15	46.2	46.2	46.2	54	30.5	2	10	248	0.00	30.036 
10:20	46.2	46.2	46.2	53	30.0	2	8	248	0.00	30.036 
10:25	46.2	46.2	46.2	53	30.0	3	10	270	0.00	30.036 
10:30	46.2	46.2	46.2	53	30.0	3	9	248	0.00	30.036 
10:35	46.4	46.4	46.4	54	30.7	2	7	248	0.00	30.036 
10:40	46.5	46.5	46.5	54	30.8	2	7	270	0.00	30.036 
10:45	46.7	46.7	46.7	53	30.5	2	8	270	0.00	30.032 
10:50	46.7	46.7	46.7	53	30.5	3	10	248	0.00	30.032 
10:55	46.7	46.7	46.7	54	30.9	2	7	248	0.00	30.032 
11:00	46.7	46.7	46.7	54	30.9	3	9	248	0.00	30.033 
11:05	46.5	46.5	46.5	53	30.3	2	8	248	0.00	30.033 
11:10	46.5	46.5	46.5	54	30.8	1	6	248	0.00	30.033 
11:15	46.5	46.5	46.5	53	30.3	2	4	248	0.00	30.033 
11:20	46.5	46.5	46.5	53	30.3	2	6	248	0.00	30.033 
11:25	46.5	46.5	46.5	53	30.3	2	6	248	0.00	30.033 
11:30	46.5	46.5	46.5	54	30.8	2	6	248	0.00	30.031 
11:35	46.5	46.5	46.5	53	30.3	2	6	248	0.00	30.031 
11:40	46.5	46.5	46.5	54	30.8	1	6	248	0.00	30.031 
11:45	46.5	46.5	46.5	54	30.8	2	7	248	0.00	30.028 
11:50	46.5	46.5	46.5	54	30.8	1	4	270	0.00	30.028 
11:55	46.5	46.5	46.5	55	31.2	1	3	0	0.00	30.028 
12:00	46.5	46.5	46.5	55	31.2	1	5	248	0.00	30.022 
12:05	46.7	46.7	46.7	57	32.3	1	4	248	0.00	30.022 
12:10	46.7	46.7	46.7	58	32.7	2	12	292	0.00	30.022 
12:15	46.5	46.5	46.5	62	34.2	3	7	270	0.00	30.018 
12:20	46.2	46.2	46.2	69	36.6	3	9	248	0.00	30.018 
12:25	45.7	45.7	45.7	75	38.2	2	6	248	0.00	30.018 
12:30	44.8	44.8	44.8	79	38.7	3	6	270	0.01	30.014 
12:35	44.2	44.2	44.2	81	38.7	2	5	68	0.00	30.014 
12:40	44.1	44.1	44.1	83	39.3	1	3	270	0.00	30.014 
12:45	43.9	43.9	43.9	84	39.4	1	7	270	0.00	30.011 
12:50	43.8	43.8	43.8	85	39.6	1	9	248	0.01	30.011 
12:55	43.8	43.8	43.8	87	40.2	1	5	225	0.00	30.011 
13:00	43.9	43.9	43.9	87	40.3	1	6	90	0.00	29.999 
13:05	43.9	43.9	43.9	87	40.3	1	4	68	0.00	29.999 
13:10	43.9	43.9	43.9	87	40.3	1	8	90	0.00	29.999 
13:15	43.9	43.9	43.9	87	40.3	1	6	68	0.00	29.983 
13:20	44.1	44.1	44.1	87	40.5	1	9	112	0.00	29.983 
13:25	44.1	44.1	44.1	87	40.5	1	6	248	0.00	29.983 
13:30	44.3	44.3	44.3	87	40.7	1	3	112	0.00	29.982 
13:35	44.5	44.5	44.5	86	40.6	1	5	270	0.00	29.982 
13:40	44.5	44.5	44.5	86	40.6	2	6	248	0.00	29.982 
13:45	44.3	44.3	44.3	86	40.4	2	7	248	0.00	29.978 
13:50	44.3	44.3	44.3	86	40.4	1	7	248	0.00	29.978 
13:55	44.2	44.2	44.2	85	40.0	2	10	248	0.00	29.978 
14:00	44.2	44.2	44.2	85	40.0	1	4	45	0.00	29.968 
14:05	44.1	44.1	44.1	85	39.9	1	6	248	0.00	29.968 
14:10	44.2	44.2	44.2	86	40.3	1	6	90	0.00	29.968 
14:15	44.2	44.2	44.2	86	40.3	1	5	22	0.00	29.969 
14:20	44.3	44.3	44.3	86	40.4	1	6	248	0.00	29.969 
14:25	44.3	44.3	44.3	85	40.1	1	5	292	0.00	29.969 
14:30	44.5	44.5	44.5	85	40.3	1	5	68	0.00	29.965 
14:35	44.6	44.6	44.6	85	40.4	1	3	248	0.00	29.965 
14:40	44.8	44.8	44.8	85	40.6	1	6	45	0.00	29.965 
14:45	44.9	44.9	44.9	84	40.4	1	7	112	0.00	29.951 
14:50	45.1	45.1	45.1	84	40.6	1	4	0	0.00	29.951 
14:55	45.2	45.2	45.2	84	40.7	1	4	45	0.00	29.951 
15:00	45.4	45.4	45.4	83	40.5	2	5	112	0.00	29.939 
15:05	45.7	45.7	45.7	83	40.8	1	4	90	0.00	29.939 
15:10	45.8	45.8	45.8	82	40.6	1	4	90	0.00	29.939 
15:15	46.0	46.0	46.0	81	40.5	2	5	45	0.00	29.934 
15:20	46.1	46.1	46.1	80	40.3	1	3	90	0.00	29.934 
15:25	46.2	46.2	46.2	79	40.1	1	4	112	0.00	29.934 
15:30	46.4	46.4	46.4	79	40.2	2	5	270	0.00	29.931 
15:35	46.5	46.5	46.5	78	40.0	1	5	45	0.00	29.931 
15:40	46.8	46.8	46.8	77	40.0	2	4	45	0.00	29.931 
15:45	47.0	47.0	47.0	77	40.2	2	10	68	0.00	29.921 
15:50	47.1	47.1	47.1	76	39.9	2	8	112	0.00	29.921 
15:55	47.3	47.3	47.3	76	40.1	2	5	112	0.00	29.921 
16:00	47.3	47.3	47.3	76	40.1	1	4	90	0.00	29.919 
16:05	47.3	47.3	47.3	76	40.1	2	8	90	0.00	29.919 
16:10	47.4	47.4	47.4	75	39.9	1	4	112	0.00	29.919 
16:15	47.7	47.7	47.7	75	40.2	1	5	112	0.00	29.918 
16:20	47.9	47.9	47.9	74	40.0	2	6	112	0.00	29.918 
16:25	48.0	48.0	48.0	74	40.1	2	6	68	0.00	29.918 
16:30	48.2	48.2	48.2	74	40.3	1	5	68	0.00	29.916 
16:35	48.5	48.5	48.5	74	40.6	1	4	45	0.00	29.916 
16:40	48.6	48.6	48.6	73	40.3	1	4	225	0.00	29.916 
16:45	48.6	48.6	48.6	73	40.3	1	6	90	0.00	29.917 
16:50	48.8	48.8	48.8	73	40.5	0	4	90	0.00	29.917 
16:55	48.9	48.9	48.9	73	40.6	1	3	90	0.00	29.917 
17:00	49.1	49.1	49.1	72	40.5	2	5	90	0.00	29.914 
17:05	49.2	49.2	49.2	72	40.6	1	3	45	0.00	29.914 
17:10	49.2	49.2	49.2	72	40.6	1	3	68	0.00	29.914 
17:15	49.4	49.4	49.4	72	40.8	1	4	135	0.00	29.914 
17:20	49.5	49.5	49.5	73	41.2	1	4	112	0.00	29.914 
17:25	49.4	49.4	49.4	74	41.5	1	3	112	0.00	29.914 
17:30	49.4	49.4	49.4	74	41.5	1	3	112	0.00	29.919 
17:35	49.4	49.4	49.4	74	41.5	1	5	112	0.00	29.919 
17:40	49.4	49.4	49.4	75	41.8	0	2	112	0.00	29.919 
17:45	49.2	49.2	49.2	75	41.6	0	1	112	0.00	29.932 
17:50	49.2	49.2	49.2	75	41.6	0	1	112	0.00	29.932 
17:55	49.2	49.2	49.2	75	41.6	0	0	---	0.00	29.932 
18:00	49.2	49.2	49.2	75	41.6	0	1	112	0.00	29.935 
18:05	49.2	49.2	49.2	75	41.6	0	0	---	0.00	29.935 
18:10	49.2	49.2	49.2	75	41.6	0	1	112	0.00	29.935 
18:15	49.4	49.4	49.4	75	41.8	0	0	---	0.00	29.926 
18:20	49.5	49.5	49.5	75	41.9	0	2	112	0.00	29.926 
18:25	49.6	49.6	49.6	73	41.3	0	2	112	0.00	29.926 
18:30	49.9	49.9	49.9	73	41.6	0	2	112	0.00	29.918 
18:35	50.2	50.2	50.2	73	41.9	0	2	112	0.00	29.918 
18:40	50.4	50.4	50.4	73	42.1	1	4	90	0.00	29.918 
18:45	50.5	50.5	50.5	72	41.8	1	2	90	0.00	29.916 
18:50	50.7	50.7	50.7	73	42.4	0	1	90	0.00	29.916 
18:55	50.7	50.7	50.7	72	42.0	1	5	90	0.00	29.916 
19:00	50.8	50.8	50.8	73	42.5	0	1	90	0.00	29.910 
19:05	51.0	51.0	51.0	73	42.7	0	2	90	0.00	29.910 
19:10	51.1	51.1	51.1	72	42.4	0	3	270	0.00	29.910 
19:15	51.3	51.3	51.3	72	42.6	0	3	90	0.00	29.916 
19:20	51.4	51.4	51.4	72	42.7	0	1	90	0.00	29.916 
19:25	51.6	51.6	51.6	72	42.9	0	4	90	0.00	29.916 
19:30	51.7	51.7	51.7	72	43.0	0	4	90	0.00	29.915 
19:35	51.9	51.9	51.9	71	42.8	0	4	202	0.00	29.915 
19:40	52.0	52.0	52.0	71	42.9	0	3	248	0.00	29.915 
19:45	52.3	52.3	52.3	71	43.2	2	10	270	0.00	29.911 
19:50	52.6	52.6	52.6	70	43.1	1	5	90	0.00	29.911 
19:55	52.6	52.6	52.6	70	43.1	1	4	248	0.00	29.911 
20:00	52.6	52.6	52.6	71	43.5	1	3	112	0.00	29.907 
20:05	52.8	52.8	52.8	70	43.3	1	3	248	0.00	29.907 
20:10	52.9	52.9	52.9	70	43.4	1	4	248	0.00	29.907 
20:15	53.1	53.1	53.1	70	43.6	0	3	248	0.00	29.910 
20:20	53.1	53.1	53.1	70	43.6	1	5	248	0.00	29.910 
20:25	53.1	53.1	53.1	70	43.6	1	9	248	0.00	29.910 
20:30	53.2	53.2	53.2	70	43.7	1	6	248	0.00	29.899 
20:35	53.1	53.1	53.1	70	43.6	1	4	135	0.00	29.899 
20:40	53.1	53.1	53.1	71	43.9	0	2	292	0.00	29.899 
20:45	52.9	52.9	52.9	71	43.8	0	1	292	0.00	29.897 
20:50	52.9	52.9	52.9	71	43.8	1	4	270	0.00	29.897 
20:55	53.1	53.1	53.1	71	43.9	1	3	270	0.00	29.897 
21:00	53.2	53.2	53.2	71	44.0	1	3	225	0.00	29.895 
21:05	53.5	53.5	53.5	70	44.0	0	3	248	0.00	29.895 
21:10	53.6	53.6	53.6	70	44.1	0	3	248	0.00	29.895 
21:15	53.6	53.6	53.6	70	44.1	1	4	248	0.00	29.894 
21:20	53.8	53.8	53.8	70	44.2	1	3	248	0.00	29.894 
21:25	53.8	53.8	53.8	70	44.2	1	4	90	0.00	29.894 
21:30	53.6	53.6	53.6	70	44.1	0	2	248	0.00	29.885 
21:35	53.6	53.6	53.6	70	44.1	1	7	315	0.00	29.885 
21:40	53.6	53.6	53.6	70	44.1	1	3	315	0.00	29.885 
21:45	53.8	53.8	53.8	70	44.2	1	5	292	0.00	29.879 
21:50	53.9	53.9	53.9	70	44.3	1	4	248	0.00	29.879 
21:55	54.1	54.1	54.1	70	44.5	1	5	248	0.00	29.879 
22:00	54.2	54.2	54.2	70	44.6	1	3	270	0.00	29.879 
22:05	54.4	54.4	54.4	70	44.8	0	2	248	0.00	29.879 
22:10	54.5	54.5	54.5	70	44.9	1	7	248	0.00	29.879 
22:15	54.8	54.8	54.8	69	44.8	1	4	248	0.00	29.877 
22:20	55.1	55.1	55.1	69	45.1	2	6	248	0.00	29.877 
22:25	55.1	55.1	55.1	69	45.1	1	4	45	0.00	29.877 
22:30	55.3	55.3	55.3	69	45.3	2	8	270	0.00	29.875 
22:35	55.4	55.4	55.4	69	45.4	2	5	248	0.00	29.875 
22:40	55.6	55.6	55.6	69	45.6	2	5	248	0.00	29.875 
22:45	55.9	55.9	55.9	68	45.5	2	7	248	0.00	29.872 
22:50	56.2	56.2	56.2	68	45.8	3	12	270	0.00	29.872 
22:55	56.3	56.3	56.3	67	45.5	3	9	248	0.00	29.872 
23:00	56.5	56.5	56.5	67	45.7	2	5	248	0.00	29.867 
23:05	56.5	56.5	56.5	67	45.7	2	10	248	0.00	29.867 
23:10	56.5	56.5	56.5	67	45.7	2	6	225	0.00	29.867 
23:15	56.6	56.6	56.6	67	45.8	2	6	248	0.00	29.870 
23:20	56.7	56.7	56.7	67	45.9	3	14	248	0.00	29.870 
23:25	56.9	56.9	56.9	67	46.1	2	9	248	0.00	29.870 
23:30	56.9	56.9	56.9	67	46.1	2	7	248	0.00	29.873 
23:35	56.9	56.9	56.9	67	46.1	2	5	248	0.00	29.873 
23:40	56.9	56.9	56.9	67	46.1	2	6	248	0.00	29.873 
23:45	56.9	56.9	56.9	67	46.1	3	10	248	0.00	29.876 
23:50	57.0	57.0	57.0	67	46.2	3	9	248	0.00	29.876 
23:55	57.0	57.0	57.0	67	46.2	3	10	248	0.00	29.876 

CoCoRaHS
IN-AL-39
A2 Web Hosting
Creative Commons License
GoDaddy
search engine by freefind advanced

loaded 2018-11-12 19:14:56 • last modified 2010-11-18 10:43:29
Privacy PolicyDisclaimer
• wx.awcolley.com is powered by PmWiki v.2002016 •
• all content (unless otherwise noted) © 2018 A W Colley